createdAt,value
2018-01-13T00:02:33.855Z,56.53
2018-01-13T00:05:09.434Z,52.70
2018-01-13T00:07:44.525Z,55.00
2018-01-13T00:10:19.837Z,55.17
2018-01-13T00:12:54.665Z,55.93
2018-01-13T00:15:29.819Z,55.80
2018-01-13T00:18:04.725Z,48.27
2018-01-13T00:20:39.557Z,55.35
2018-01-13T00:23:14.574Z,55.50
2018-01-13T00:25:49.748Z,47.33
2018-01-13T00:28:24.699Z,57.23
2018-01-13T00:30:59.636Z,56.03
2018-01-13T00:33:35.263Z,45.80
2018-01-13T00:36:10.201Z,65.82
2018-01-13T00:38:45.619Z,54.03
2018-01-13T00:41:21.330Z,65.43
2018-01-13T00:43:56.025Z,52.47
2018-01-13T00:46:30.961Z,69.23
2018-01-13T00:49:06.254Z,61.93
2018-01-13T00:51:41.890Z,65.75
2018-01-13T00:54:17.197Z,61.70
2018-01-13T00:56:52.211Z,67.80
2018-01-13T00:59:27.026Z,83.80
2018-01-13T01:02:02.669Z,53.80
2018-01-13T01:04:37.858Z,55.60
2018-01-13T01:07:13.091Z,55.30
2018-01-13T01:09:47.826Z,55.17
2018-01-13T01:12:22.554Z,59.95
2018-01-13T01:14:57.731Z,52.80
2018-01-13T01:17:32.933Z,61.55
2018-01-13T01:20:07.848Z,53.30
2018-01-13T01:22:42.718Z,56.70
2018-01-13T01:25:17.865Z,62.33
2018-01-13T01:27:52.859Z,71.87
2018-01-13T01:30:28.100Z,46.80
2018-01-13T01:33:03.174Z,57.77
2018-01-13T01:35:38.389Z,66.45
2018-01-13T01:38:13.754Z,57.47
2018-01-13T01:40:48.133Z,50.33
2018-01-13T01:43:24.113Z,61.85
2018-01-13T01:45:58.982Z,65.87
2018-01-13T01:48:34.205Z,46.93
2018-01-13T01:51:09.191Z,54.60
2018-01-13T01:53:44.740Z,73.65
2018-01-13T01:56:20.038Z,56.00
2018-01-13T01:58:54.851Z,65.43
2018-01-13T02:01:29.549Z,57.37
2018-01-13T02:04:04.793Z,59.35
2018-01-13T02:06:40.169Z,61.23
2018-01-13T02:09:15.290Z,49.10
2018-01-13T02:11:50.878Z,58.07
2018-01-13T02:14:25.442Z,58.27
2018-01-13T02:17:00.822Z,50.27
2018-01-13T02:19:36.518Z,54.40
2018-01-13T02:22:11.318Z,62.80
2018-01-13T02:24:45.970Z,46.27
2018-01-13T02:27:20.974Z,62.17
2018-01-13T02:29:55.911Z,57.73
2018-01-13T02:32:31.081Z,68.03
2018-01-13T02:35:05.966Z,57.33
2018-01-13T02:37:41.163Z,57.33
2018-01-13T02:40:15.999Z,67.43
2018-01-13T02:42:50.427Z,47.23
2018-01-13T02:45:26.178Z,49.78
2018-01-13T02:48:01.046Z,60.70
2018-01-13T02:50:36.470Z,59.27
2018-01-13T02:53:11.070Z,51.60
2018-01-13T02:55:46.111Z,50.17
2018-01-13T02:58:20.871Z,47.70
2018-01-13T03:00:56.022Z,55.90
2018-01-13T03:03:31.534Z,61.13
2018-01-13T03:06:06.585Z,59.63
2018-01-13T03:08:41.942Z,59.22
2018-01-13T03:11:17.339Z,68.50
2018-01-13T03:13:52.043Z,42.07
2018-01-13T03:16:27.362Z,47.83
2018-01-13T03:19:02.410Z,65.53
2018-01-13T03:21:37.726Z,44.67
2018-01-13T03:24:13.230Z,44.90
2018-01-13T03:26:48.225Z,51.50
2018-01-13T03:29:24.496Z,51.70
2018-01-13T03:32:00.109Z,52.70
2018-01-13T03:34:35.550Z,51.83
2018-01-13T03:37:10.982Z,47.42
2018-01-13T03:39:45.734Z,53.17
2018-01-13T03:42:21.101Z,53.50
2018-01-13T03:44:56.054Z,51.70
2018-01-13T03:47:31.356Z,49.83
2018-01-13T03:50:06.881Z,56.88
2018-01-13T03:52:41.735Z,51.70
2018-01-13T03:55:17.262Z,42.33
2018-01-13T03:57:51.962Z,42.40
2018-01-13T04:00:27.433Z,41.20
2018-01-13T04:03:02.569Z,54.47
2018-01-13T04:05:37.710Z,42.60
2018-01-13T04:08:12.187Z,49.57
2018-01-13T04:10:47.121Z,24.20
2018-01-13T04:13:22.273Z,46.03
2018-01-13T04:15:57.145Z,42.53
2018-01-13T04:18:32.413Z,46.17
2018-01-13T04:21:07.303Z,45.70
2018-01-13T04:23:42.383Z,35.77
2018-01-13T04:26:17.566Z,41.70
2018-01-13T04:28:52.366Z,35.37
2018-01-13T04:31:27.173Z,43.77
2018-01-13T04:34:02.280Z,41.60
2018-01-13T04:36:36.729Z,41.87
2018-01-13T04:39:11.770Z,59.03
2018-01-13T04:41:47.341Z,49.63
2018-01-13T04:44:22.549Z,33.87
2018-01-13T04:46:57.248Z,41.35
2018-01-13T04:49:32.230Z,33.08
2018-01-13T04:52:07.252Z,47.33
2018-01-13T04:54:41.868Z,53.97
2018-01-13T04:57:16.803Z,47.70
2018-01-13T04:59:52.337Z,40.88
2018-01-13T05:02:27.378Z,33.27
2018-01-13T05:05:02.274Z,47.27
2018-01-13T05:07:37.630Z,34.67
2018-01-13T05:10:12.529Z,50.73
2018-01-13T05:12:47.259Z,45.78
2018-01-13T05:15:22.571Z,48.33
2018-01-13T05:17:57.778Z,51.70
2018-01-13T05:20:33.541Z,34.40
2018-01-13T05:23:08.374Z,47.97
2018-01-13T05:25:43.309Z,45.77
2018-01-13T05:28:18.610Z,44.43
2018-01-13T05:30:53.812Z,52.90
2018-01-13T05:33:29.416Z,34.27
2018-01-13T05:36:04.550Z,48.03
2018-01-13T05:38:39.640Z,51.67
2018-01-13T05:41:14.435Z,48.73
2018-01-13T05:43:49.811Z,44.53
2018-01-13T05:46:24.537Z,46.73
2018-01-13T05:48:59.454Z,41.67
2018-01-13T05:51:34.739Z,46.28
2018-01-13T05:54:09.673Z,47.93
2018-01-13T05:56:45.011Z,40.10
2018-01-13T05:59:20.487Z,47.33
2018-01-13T06:01:55.279Z,42.70
2018-01-13T06:04:30.721Z,50.53
2018-01-13T06:07:05.474Z,43.80
2018-01-13T06:09:40.490Z,45.97
2018-01-13T06:12:15.614Z,48.53
2018-01-13T06:14:50.634Z,43.00
2018-01-13T06:17:25.902Z,47.40
2018-01-13T06:20:00.670Z,45.90
2018-01-13T06:22:36.002Z,42.20
2018-01-13T06:25:11.437Z,37.33
2018-01-13T06:27:45.945Z,50.60
2018-01-13T06:30:21.470Z,42.88
2018-01-13T06:32:56.666Z,44.77
2018-01-13T06:35:31.776Z,33.70
2018-01-13T06:38:07.124Z,32.27
2018-01-13T06:40:42.821Z,36.10
2018-01-13T06:43:18.403Z,35.63
2018-01-13T06:45:53.549Z,33.10
2018-01-13T06:48:28.841Z,37.53
2018-01-13T06:51:03.917Z,36.17
2018-01-13T06:53:38.665Z,33.30
2018-01-13T06:56:13.958Z,32.67
2018-01-13T06:58:49.487Z,40.60
2018-01-13T07:01:25.097Z,30.23
2018-01-13T07:04:00.461Z,30.70
2018-01-13T07:06:35.076Z,32.53
2018-01-13T07:09:09.630Z,27.33
2018-01-13T07:11:44.914Z,43.03
2018-01-13T07:14:19.378Z,36.70
2018-01-13T07:16:54.661Z,43.97
2018-01-13T07:19:29.698Z,26.40
2018-01-13T07:22:04.722Z,30.57
2018-01-13T07:24:39.622Z,43.45
2018-01-13T07:27:14.663Z,40.20
2018-01-13T07:29:49.795Z,35.70
2018-01-13T07:32:25.062Z,39.13
2018-01-13T07:34:59.933Z,37.17
2018-01-13T07:37:35.274Z,39.03
2018-01-13T07:40:10.283Z,40.97
2018-01-13T07:42:44.876Z,40.80
2018-01-13T07:45:19.970Z,49.00
2018-01-13T07:47:54.748Z,38.70
2018-01-13T07:50:29.955Z,37.07
2018-01-13T07:53:05.294Z,34.67
2018-01-13T07:55:40.518Z,42.30
2018-01-13T07:58:15.841Z,42.43
2018-01-13T08:00:50.755Z,37.00
2018-01-13T08:03:25.344Z,43.93
2018-01-13T08:06:00.176Z,39.63
2018-01-13T08:08:34.510Z,43.23
2018-01-13T08:11:08.932Z,52.27
2018-01-13T08:13:43.419Z,38.33
2018-01-13T08:16:18.902Z,42.40
2018-01-13T08:18:54.019Z,25.07
2018-01-13T08:21:29.113Z,37.13
2018-01-13T08:24:03.874Z,44.47
2018-01-13T08:26:39.330Z,42.43
2018-01-13T08:29:13.830Z,36.10
2018-01-13T08:31:49.087Z,41.60
2018-01-13T08:34:25.098Z,53.90
2018-01-13T08:37:00.089Z,34.23
2018-01-13T08:39:35.197Z,42.17
2018-01-13T08:42:10.046Z,36.23
2018-01-13T08:44:44.762Z,39.03
2018-01-13T08:47:19.894Z,57.40
2018-01-13T08:49:54.946Z,32.07
2018-01-13T08:52:30.384Z,42.17
2018-01-13T08:55:05.318Z,36.20
2018-01-13T08:57:39.890Z,34.53
2018-01-13T09:00:14.678Z,32.83
2018-01-13T09:02:49.736Z,47.13
2018-01-13T09:05:24.983Z,35.25
2018-01-13T09:07:59.583Z,39.80
2018-01-13T09:10:35.370Z,29.40
2018-01-13T09:13:10.205Z,34.40
2018-01-13T09:15:45.898Z,40.58
2018-01-13T09:18:21.160Z,32.93
2018-01-13T09:20:56.037Z,39.30
2018-01-13T09:23:31.047Z,50.27
2018-01-13T09:26:05.370Z,40.87
2018-01-13T09:28:40.295Z,36.03
2018-01-13T09:31:15.522Z,30.10
2018-01-13T09:33:51.078Z,43.47
2018-01-13T09:36:25.754Z,28.37
2018-01-13T09:39:01.011Z,42.43
2018-01-13T09:41:37.318Z,31.50
2018-01-13T09:44:12.413Z,34.93
2018-01-13T09:46:47.999Z,38.28
2018-01-13T09:49:22.890Z,38.10
2018-01-13T09:51:58.182Z,35.30
2018-01-13T09:54:33.166Z,34.42
2018-01-13T09:57:08.342Z,33.43
2018-01-13T09:59:43.923Z,29.10
2018-01-13T10:02:19.071Z,35.23
2018-01-13T10:04:54.038Z,32.97
2018-01-13T10:07:29.354Z,32.53
2018-01-13T10:10:04.414Z,33.70
2018-01-13T10:12:39.582Z,27.17
2018-01-13T10:15:14.313Z,37.60
2018-01-13T10:17:49.221Z,42.83
2018-01-13T10:20:25.405Z,24.42
2018-01-13T10:23:00.122Z,35.80
2018-01-13T10:25:35.709Z,36.43
2018-01-13T10:28:10.415Z,30.20
2018-01-13T10:30:45.579Z,41.13
2018-01-13T10:33:20.977Z,41.77
2018-01-13T10:35:56.200Z,33.57
2018-01-13T10:38:40.046Z,37.97
2018-01-13T10:41:14.542Z,28.83
2018-01-13T10:43:49.280Z,29.00
2018-01-13T10:46:25.560Z,37.05
2018-01-13T10:49:00.263Z,36.73
2018-01-13T10:51:35.451Z,33.43
2018-01-13T10:54:09.806Z,30.87
2018-01-13T10:56:45.280Z,36.73
2018-01-13T10:59:20.312Z,37.83
2018-01-13T11:01:55.411Z,18.40
2018-01-13T11:04:30.406Z,34.63
2018-01-13T11:07:05.170Z,37.77
2018-01-13T11:09:40.547Z,36.10
2018-01-13T11:12:15.431Z,38.47
2018-01-13T11:14:50.223Z,43.57
2018-01-13T11:17:25.719Z,39.87
2018-01-13T11:20:00.849Z,38.47
2018-01-13T11:22:35.491Z,39.10
2018-01-13T11:25:10.663Z,43.63
2018-01-13T11:27:45.270Z,44.40
2018-01-13T11:30:20.502Z,42.67
2018-01-13T11:32:55.637Z,38.60
2018-01-13T11:35:31.366Z,47.78
2018-01-13T11:38:06.410Z,31.93
2018-01-13T11:40:41.320Z,39.38
2018-01-13T11:43:16.171Z,32.75
2018-01-13T11:45:51.203Z,39.72
2018-01-13T11:48:26.572Z,42.13
2018-01-13T11:51:01.331Z,38.67
2018-01-13T11:53:35.900Z,26.73
2018-01-13T11:56:10.976Z,36.83
2018-01-13T11:58:46.023Z,38.33
2018-01-13T12:01:21.354Z,37.80
2018-01-13T12:03:56.371Z,28.53
2018-01-13T12:06:31.339Z,35.90
2018-01-13T12:09:06.826Z,30.17
2018-01-13T12:11:41.436Z,37.63
2018-01-13T12:14:16.425Z,35.47
2018-01-13T12:16:51.699Z,39.90
2018-01-13T12:19:26.745Z,36.70
2018-01-13T12:22:02.296Z,44.30
2018-01-13T12:24:37.353Z,33.13
2018-01-13T12:27:12.034Z,31.70
2018-01-13T12:29:47.415Z,43.75
2018-01-13T12:32:22.463Z,38.83
2018-01-13T12:34:57.686Z,30.10
2018-01-13T12:37:32.846Z,36.87
2018-01-13T12:40:07.429Z,39.80
2018-01-13T12:42:42.498Z,23.97
2018-01-13T12:45:17.483Z,34.90
2018-01-13T12:47:52.486Z,31.47
2018-01-13T12:50:27.396Z,33.33
2018-01-13T12:53:02.092Z,23.60
2018-01-13T12:55:37.062Z,36.17
2018-01-13T12:58:11.882Z,40.13
2018-01-13T13:00:46.456Z,39.53
2018-01-13T13:03:21.529Z,30.20
2018-01-13T13:05:56.564Z,31.53
2018-01-13T13:08:31.815Z,23.45
2018-01-13T13:11:06.724Z,36.30
2018-01-13T13:13:41.892Z,38.63
2018-01-13T13:16:16.762Z,41.60
2018-01-13T13:18:51.726Z,35.50
2018-01-13T13:21:26.876Z,22.23
2018-01-13T13:24:01.650Z,28.20
2018-01-13T13:26:36.814Z,37.97
2018-01-13T13:29:11.791Z,38.10
2018-01-13T13:31:46.793Z,36.67
2018-01-13T13:34:21.747Z,44.37
2018-01-13T13:36:56.343Z,33.20
2018-01-13T13:39:31.679Z,35.28
2018-01-13T13:42:06.589Z,32.40
2018-01-13T13:44:41.859Z,34.70
2018-01-13T13:47:16.516Z,38.08
2018-01-13T13:49:51.872Z,38.92
2018-01-13T13:52:26.804Z,25.50
2018-01-13T13:55:01.686Z,28.33
2018-01-13T13:57:37.576Z,47.75
2018-01-13T14:00:12.698Z,45.90
2018-01-13T14:02:47.550Z,30.12
2018-01-13T14:05:23.058Z,31.60
2018-01-13T14:07:58.155Z,28.77
2018-01-13T14:10:33.659Z,29.30
2018-01-13T14:13:08.668Z,32.27
2018-01-13T14:15:43.833Z,33.92
2018-01-13T14:18:18.730Z,30.90
2018-01-13T14:20:54.017Z,26.77
2018-01-13T14:23:29.120Z,38.93
2018-01-13T14:26:03.845Z,45.30
2018-01-13T14:28:38.979Z,33.20
2018-01-13T14:31:14.011Z,42.63
2018-01-13T14:33:48.875Z,37.40
2018-01-13T14:36:24.172Z,35.37
2018-01-13T14:39:00.720Z,40.37
2018-01-13T14:41:36.667Z,42.65
2018-01-13T14:44:12.431Z,36.63
2018-01-13T14:46:47.778Z,42.60
2018-01-13T14:49:22.822Z,32.13
2018-01-13T14:51:57.503Z,40.60
2018-01-13T14:54:32.439Z,45.55
2018-01-13T14:57:07.459Z,40.73
2018-01-13T14:59:42.355Z,54.73
2018-01-13T15:02:17.139Z,55.70
2018-01-13T15:04:52.239Z,48.67
2018-01-13T15:07:27.800Z,52.73
2018-01-13T15:10:02.861Z,54.93
2018-01-13T15:12:38.108Z,63.33
2018-01-13T15:15:13.107Z,67.20
2018-01-13T15:17:48.095Z,75.37
2018-01-13T15:20:22.940Z,35.80
2018-01-13T15:22:58.006Z,59.30
2018-01-13T15:25:33.252Z,53.80
2018-01-13T15:28:08.135Z,70.30
2018-01-13T15:30:43.541Z,52.40
2018-01-13T15:33:18.263Z,44.57
2018-01-13T15:35:53.232Z,48.73
2018-01-13T15:38:28.244Z,64.57
2018-01-13T15:41:02.955Z,71.93
2018-01-13T15:43:37.956Z,70.43
2018-01-13T15:46:13.264Z,40.17
2018-01-13T15:48:48.235Z,57.57
2018-01-13T15:51:23.106Z,73.80
2018-01-13T15:53:58.087Z,53.20
2018-01-13T15:56:33.308Z,43.37
2018-01-13T15:59:08.044Z,64.20
2018-01-13T16:01:43.019Z,62.62
2018-01-13T16:04:17.935Z,71.30
2018-01-13T16:06:53.076Z,78.60
2018-01-13T16:09:28.263Z,76.43
2018-01-13T16:12:03.398Z,63.27
2018-01-13T16:14:38.884Z,62.38
2018-01-13T16:17:14.073Z,40.23
2018-01-13T16:19:49.011Z,59.57
2018-01-13T16:22:24.111Z,65.97
2018-01-13T16:24:59.171Z,62.60
2018-01-13T16:27:34.324Z,67.70
2018-01-13T16:30:09.157Z,46.90
2018-01-13T16:32:44.391Z,44.33
2018-01-13T16:35:19.126Z,56.37
2018-01-13T16:37:54.326Z,56.63
2018-01-13T16:40:29.443Z,74.13
2018-01-13T16:43:04.261Z,61.63
2018-01-13T16:45:39.679Z,49.50
2018-01-13T16:48:14.503Z,53.77
2018-01-13T16:50:49.502Z,64.17
2018-01-13T16:53:24.378Z,54.77
2018-01-13T16:55:59.287Z,70.70
2018-01-13T16:58:34.346Z,54.55
2018-01-13T17:01:09.118Z,60.40
2018-01-13T17:03:44.191Z,49.20
2018-01-13T17:06:19.504Z,55.43
2018-01-13T17:08:54.267Z,53.50
2018-01-13T17:11:29.231Z,43.27
2018-01-13T17:14:04.193Z,30.33
2018-01-13T17:16:39.370Z,63.65
2018-01-13T17:19:14.263Z,46.30
2018-01-13T17:21:49.139Z,57.07
2018-01-13T17:24:24.339Z,58.80
2018-01-13T17:26:59.286Z,55.78
2018-01-13T17:29:34.415Z,62.78
2018-01-13T17:32:09.291Z,69.17
2018-01-13T17:34:44.288Z,55.80
2018-01-13T17:37:19.266Z,61.07
2018-01-13T17:39:54.171Z,55.53
2018-01-13T17:42:29.686Z,45.87
2018-01-13T17:45:04.528Z,60.57
2018-01-13T17:47:39.565Z,73.33
2018-01-13T17:50:14.320Z,48.23
2018-01-13T17:52:49.600Z,55.87
2018-01-13T17:55:24.285Z,52.10
2018-01-13T17:57:59.227Z,50.58
2018-01-13T18:00:34.344Z,44.78
2018-01-13T18:03:09.304Z,48.80
2018-01-13T18:05:44.639Z,40.90
2018-01-13T18:08:19.456Z,44.15
2018-01-13T18:10:56.282Z,32.25
2018-01-13T18:13:31.603Z,34.83
2018-01-13T18:16:06.572Z,30.70
2018-01-13T18:18:41.545Z,35.60
2018-01-13T18:21:16.497Z,25.77
2018-01-13T18:23:51.573Z,30.33
2018-01-13T18:26:27.490Z,33.22
2018-01-13T18:29:02.592Z,28.50
2018-01-13T18:31:37.421Z,23.13
2018-01-13T18:34:12.547Z,38.70
2018-01-13T18:36:47.573Z,32.40
2018-01-13T18:39:22.606Z,31.63
2018-01-13T18:41:57.680Z,24.00
2018-01-13T18:44:32.423Z,33.13
2018-01-13T18:47:07.417Z,27.03
2018-01-13T18:49:42.443Z,23.00
2018-01-13T18:52:17.443Z,33.30
2018-01-13T18:54:52.506Z,25.10
2018-01-13T18:57:27.555Z,31.12
2018-01-13T19:00:02.543Z,30.30
2018-01-13T19:02:37.932Z,21.83
2018-01-13T19:05:12.786Z,22.53
2018-01-13T19:07:47.931Z,29.10
2018-01-13T19:10:23.442Z,34.95
2018-01-13T19:12:58.106Z,32.60
2018-01-13T19:15:33.582Z,28.95
2018-01-13T19:18:08.578Z,26.40
2018-01-13T19:20:43.650Z,21.67
2018-01-13T19:23:18.715Z,22.07
2018-01-13T19:25:53.598Z,31.70
2018-01-13T19:28:28.565Z,33.10
2018-01-13T19:31:03.532Z,28.80
2018-01-13T19:33:38.503Z,27.30
2018-01-13T19:36:13.190Z,17.85
2018-01-13T19:38:48.087Z,30.40
2018-01-13T19:41:23.172Z,37.33
2018-01-13T19:43:58.684Z,33.77
2018-01-13T19:46:33.744Z,33.35
2018-01-13T19:49:08.627Z,23.00
2018-01-13T19:51:44.227Z,28.67
2018-01-13T19:54:18.739Z,36.67
2018-01-13T19:56:53.247Z,29.37
2018-01-13T19:59:28.863Z,27.60
2018-01-13T20:02:03.393Z,24.67
2018-01-13T20:04:38.258Z,22.23
2018-01-13T20:07:13.818Z,14.87
2018-01-13T20:09:48.711Z,24.30
2018-01-13T20:12:23.618Z,20.13
2018-01-13T20:14:58.743Z,26.80
2018-01-13T20:17:33.807Z,23.40
2018-01-13T20:20:08.699Z,31.87
2018-01-13T20:22:43.629Z,28.13
2018-01-13T20:25:18.720Z,27.13
2018-01-13T20:27:53.756Z,29.67
2018-01-13T20:30:28.744Z,22.33
2018-01-13T20:33:03.909Z,22.40
2018-01-13T20:35:38.883Z,25.83
2018-01-13T20:38:13.759Z,20.77
2018-01-13T20:40:49.474Z,30.70
2018-01-13T20:43:23.947Z,27.53
2018-01-13T20:45:59.129Z,17.40
2018-01-13T20:48:34.227Z,19.33
2018-01-13T20:51:09.291Z,25.67
2018-01-13T20:53:44.655Z,25.73
2018-01-13T20:56:19.744Z,28.30
2018-01-13T20:58:54.786Z,30.03
2018-01-13T21:01:29.456Z,24.07
2018-01-13T21:04:04.381Z,26.20
2018-01-13T21:06:38.910Z,19.27
2018-01-13T21:09:13.821Z,24.10
2018-01-13T21:11:49.239Z,22.47
2018-01-13T21:14:24.741Z,21.95
2018-01-13T21:16:59.776Z,25.07
2018-01-13T21:19:35.156Z,13.15
2018-01-13T21:22:09.803Z,26.67
2018-01-13T21:24:44.982Z,28.93
2018-01-13T21:27:19.973Z,18.27
2018-01-13T21:29:54.919Z,22.07
2018-01-13T21:32:30.140Z,24.50
2018-01-13T21:35:04.920Z,26.50
2018-01-13T21:37:40.187Z,24.40
2018-01-13T21:40:15.092Z,27.40
2018-01-13T21:42:50.195Z,25.47
2018-01-13T21:45:25.386Z,27.67
2018-01-13T21:48:00.388Z,23.33
2018-01-13T21:50:35.385Z,24.13
2018-01-13T21:53:10.209Z,24.07
2018-01-13T21:55:45.382Z,25.67
2018-01-13T21:58:20.248Z,20.83
2018-01-13T22:00:55.521Z,20.77
2018-01-13T22:03:31.147Z,16.90
2018-01-13T22:06:06.007Z,21.70
2018-01-13T22:08:41.083Z,18.98
2018-01-13T22:11:15.996Z,18.87
2018-01-13T22:13:50.991Z,19.60
2018-01-13T22:16:27.283Z,26.73
2018-01-13T22:19:02.096Z,21.63
2018-01-13T22:21:36.840Z,21.73
2018-01-13T22:24:11.987Z,17.57
2018-01-13T22:26:46.942Z,13.07
2018-01-13T22:29:22.040Z,19.50
2018-01-13T22:31:57.127Z,21.83
2018-01-13T22:34:32.611Z,14.40
2018-01-13T22:37:07.602Z,16.27
2018-01-13T22:39:42.361Z,23.07
2018-01-13T22:42:17.338Z,19.30
2018-01-13T22:44:52.555Z,22.97
2018-01-13T22:47:28.385Z,9.60
2018-01-13T22:50:03.358Z,14.50
2018-01-13T22:52:38.618Z,18.90
2018-01-13T22:55:13.206Z,19.87
2018-01-13T22:57:48.331Z,17.60
2018-01-13T23:00:55.056Z,14.07
2018-01-13T23:03:30.339Z,11.23
2018-01-13T23:06:05.138Z,19.20
2018-01-13T23:08:40.431Z,19.00
2018-01-13T23:11:15.095Z,17.03
2018-01-13T23:13:50.055Z,17.50
2018-01-13T23:16:25.314Z,16.80
2018-01-13T23:19:00.279Z,15.87
2018-01-13T23:21:35.395Z,15.47
2018-01-13T23:24:10.361Z,17.20
2018-01-13T23:26:45.194Z,16.37
2018-01-13T23:29:19.584Z,22.10
2018-01-13T23:31:55.155Z,20.87
2018-01-13T23:34:30.310Z,19.73
2018-01-13T23:37:05.335Z,21.90
2018-01-13T23:39:40.302Z,17.42
2018-01-13T23:42:15.267Z,19.57
2018-01-13T23:44:50.274Z,20.40
2018-01-13T23:47:25.239Z,20.07
2018-01-13T23:50:00.219Z,20.40
2018-01-13T23:52:35.567Z,19.05
2018-01-13T23:55:10.315Z,22.10
2018-01-13T23:57:45.379Z,22.65
